Terminal Aerodrome Forecast
Issued by NWS

Home | Current Version | Previous Version | Text Only | Print | Product List | Glossary On
Versions: 1 2 3 4 5 6 7 8 9 10 11 12 13 14 15
000
FTUS42 TJSJ 062335
TAFJMZ
TAF
TJMZ 062335Z 0700/0724 VRB06KT P6SM FEW025 SCT060
     FM071530 27010KT P6SM SCT025 BKN040
      TEMPO 0718/0720 VRB10KT 2SM TSRA BKN025CB
     FM072200 06006KT P6SM FEW030
      AMD NOT SKED TIL 071500=

USA.gov is the U.S. government's official web portal to all federal, state and local government web resources and services.